createdAt,value
2023-05-23T00:06:05.929Z,14.4
2023-05-23T00:16:08.456Z,14.4
2023-05-23T00:26:10.757Z,14.3
2023-05-23T00:36:12.522Z,14.2
2023-05-23T00:46:14.583Z,14.2
2023-05-23T00:56:16.557Z,14.2
2023-05-23T01:06:18.982Z,14.2
2023-05-23T01:16:21.540Z,14.2
2023-05-23T01:26:23.922Z,14.2
2023-05-23T01:36:26.423Z,14.1
2023-05-23T01:46:28.762Z,14.1
2023-05-23T01:56:30.487Z,14.1
2023-05-23T02:06:32.729Z,14.1
2023-05-23T02:16:34.726Z,14.2
2023-05-23T02:26:36.384Z,14.2
2023-05-23T02:36:38.946Z,14.2
2023-05-23T02:46:41.664Z,14.2
2023-05-23T02:56:44.120Z,14.2
2023-05-23T03:06:46.494Z,14
2023-05-23T03:16:48.328Z,13.9
2023-05-23T05:07:08.772Z,13.4
2023-05-23T09:48:06.106Z,12.3
2023-05-23T10:08:10.848Z,11.9
2023-05-23T10:28:15.312Z,14.5
2023-05-23T10:48:19.996Z,13.6
2023-05-23T10:58:22.115Z,13.2
2023-05-23T11:08:29.719Z,13.7
2023-05-23T11:18:26.934Z,13.7
2023-05-23T11:28:28.825Z,13.1
2023-05-23T11:48:33.786Z,13.9
2023-05-23T11:58:36.195Z,14.4
2023-05-23T12:18:40.622Z,14.1
2023-05-23T12:28:42.829Z,15.5
2023-05-23T12:38:44.946Z,15.5
2023-05-23T12:48:47.275Z,15.2
2023-05-23T13:28:56.377Z,15.2
2023-05-23T18:09:51.826Z,13.7
2023-05-23T18:19:54.004Z,13.4
2023-05-23T18:29:56.131Z,13
2023-05-23T18:39:58.471Z,12.6
2023-05-23T18:50:00.868Z,12.3
2023-05-23T19:00:03.060Z,12
2023-05-23T19:20:07.924Z,11.6
2023-05-23T19:40:12.199Z,10.8
2023-05-23T19:50:14.111Z,10.6
2023-05-23T20:00:16.337Z,10.5
2023-05-23T20:10:18.702Z,10.1
2023-05-23T20:20:20.772Z,9.8
2023-05-23T20:30:22.520Z,9.7
2023-05-23T20:40:24.909Z,9.5
2023-05-23T20:50:27.134Z,9.2
2023-05-23T21:10:31.652Z,8.9
2023-05-23T22:00:43.273Z,8
2023-05-23T22:40:52.070Z,6.6
2023-05-23T22:50:54.091Z,6.6
2023-05-23T23:00:56.344Z,6.3
2023-05-23T23:21:07.250Z,5.9
2023-05-23T23:41:10.933Z,5.4
